createdAt,value
2023-02-14T00:01:41.510Z,102581.28
2023-02-14T00:05:43.410Z,102582.63
2023-02-14T00:09:44.995Z,102583.88
2023-02-14T00:14:05.882Z,102579.50
2023-02-14T00:18:07.485Z,102569.97
2023-02-14T00:22:09.103Z,102567.72
2023-02-14T00:26:15.092Z,102571.47
2023-02-14T00:30:17.882Z,102570.25
2023-02-14T00:34:19.769Z,102573.06
2023-02-14T00:38:21.305Z,102579.78
2023-02-14T00:42:22.867Z,102575.22
2023-02-14T00:46:25.605Z,102568.81
2023-02-14T00:50:27.227Z,102566.75
2023-02-14T00:54:28.750Z,102570.47
2023-02-14T00:58:31.318Z,102564.97
2023-02-14T01:02:32.832Z,102571.41
2023-02-14T01:06:34.528Z,102576.78
2023-02-14T01:10:37.306Z,102585.59
2023-02-14T01:14:38.886Z,102578.28
2023-02-14T01:18:41.011Z,102586.19
2023-02-14T01:22:44.064Z,102588.44
2023-02-14T01:26:45.581Z,102594.84
2023-02-14T01:30:47.196Z,102593.66
2023-02-14T01:34:48.742Z,102587.41
2023-02-14T01:38:56.040Z,102584.13
2023-02-14T01:42:58.095Z,102593.50
2023-02-14T01:47:03.164Z,102595.13
2023-02-14T01:51:04.817Z,102596.19
2023-02-14T01:55:20.606Z,102591.09
2023-02-14T01:59:26.405Z,102591.38
2023-02-14T02:03:38.968Z,102595.53
2023-02-14T02:07:40.745Z,102599.69
2023-02-14T02:11:43.184Z,102600.88
2023-02-14T02:15:50.814Z,102607.25
2023-02-14T02:20:40.192Z,102599.94
2023-02-14T02:25:16.243Z,102604.69
2023-02-14T02:29:45.185Z,102605.16
2023-02-14T02:34:05.112Z,102598.16
2023-02-14T02:38:36.651Z,102604.66
2023-02-14T02:43:11.105Z,102594.81
2023-02-14T02:47:25.487Z,102590.78
2023-02-14T02:51:54.367Z,102586.16
2023-02-14T02:56:29.097Z,102588.97
2023-02-14T03:00:31.645Z,102593.16
2023-02-14T03:04:55.731Z,102600.44
2023-02-14T03:09:33.660Z,102599.38
2023-02-14T03:13:57.079Z,102599.81
2023-02-14T03:18:45.194Z,102601.44
2023-02-14T03:23:00.325Z,102605.56
2023-02-14T03:27:12.275Z,102601.06
2023-02-14T03:31:32.423Z,102598.72
2023-02-14T03:35:50.709Z,102592.34
2023-02-14T03:40:17.737Z,102590.69
2023-02-14T03:44:25.730Z,102601.13
2023-02-14T03:48:29.932Z,102593.66
2023-02-14T03:52:33.897Z,102598.81
2023-02-14T03:56:45.011Z,102593.75
2023-02-14T04:00:50.262Z,102597.19
2023-02-14T04:04:53.407Z,102605.22
2023-02-14T04:08:55.301Z,102611.16
2023-02-14T04:12:56.859Z,102613.69
2023-02-14T04:17:17.193Z,102618.03
2023-02-14T04:21:18.895Z,102609.69
2023-02-14T04:25:21.254Z,102612.34
2023-02-14T04:29:23.076Z,102610.78
2023-02-14T04:33:24.583Z,102613.06
2023-02-14T04:37:26.269Z,102609.25
2023-02-14T04:41:27.770Z,102605.72
2023-02-14T04:45:29.319Z,102596.78
2023-02-14T04:49:30.837Z,102597.56
2023-02-14T04:53:32.546Z,102604.25
2023-02-14T04:57:34.151Z,102607.97
2023-02-14T05:01:35.725Z,102603.06
2023-02-14T05:05:37.266Z,102599.94
2023-02-14T05:09:38.821Z,102598.94
2023-02-14T05:13:40.454Z,102593.41
2023-02-14T05:17:42.000Z,102584.94
2023-02-14T05:21:43.538Z,102585.25
2023-02-14T05:25:47.957Z,102583.59
2023-02-14T05:29:49.608Z,102580.66
2023-02-14T05:33:51.203Z,102580.47
2023-02-14T05:37:53.092Z,102589.28
2023-02-14T05:41:58.476Z,102592.25
2023-02-14T05:46:00.990Z,102595.38
2023-02-14T05:50:02.683Z,102602.69
2023-02-14T05:54:04.258Z,102603.72
2023-02-14T05:58:05.930Z,102603.59
2023-02-14T06:02:07.478Z,102592.25
2023-02-14T06:06:09.115Z,102594.94
2023-02-14T06:10:10.845Z,102593.00
2023-02-14T06:14:12.427Z,102597.16
2023-02-14T06:18:14.027Z,102593.00
2023-02-14T06:22:16.113Z,102601.31
2023-02-14T06:26:17.698Z,102604.44
2023-02-14T06:30:19.416Z,102613.25
2023-02-14T06:34:21.004Z,102614.44
2023-02-14T06:38:22.522Z,102617.84
2023-02-14T06:42:24.142Z,102632.91
2023-02-14T06:46:26.011Z,102627.97
2023-02-14T06:50:27.665Z,102628.88
2023-02-14T06:54:29.240Z,102634.69
2023-02-14T06:58:31.503Z,102641.56
2023-02-14T07:02:33.063Z,102627.28
2023-02-14T07:06:36.840Z,102636.53
2023-02-14T07:10:38.623Z,102631.75
2023-02-14T07:14:40.283Z,102631.00
2023-02-14T07:18:41.844Z,102629.41
2023-02-14T07:22:43.419Z,102631.34
2023-02-14T07:26:45.030Z,102626.13
2023-02-14T07:30:46.637Z,102625.06
2023-02-14T07:34:48.377Z,102626.13
2023-02-14T07:38:49.943Z,102625.94
2023-02-14T07:42:55.815Z,102629.16
2023-02-14T07:46:57.301Z,102625.09
2023-02-14T07:50:59.380Z,102627.03
2023-02-14T07:55:01.054Z,102626.75
2023-02-14T07:59:02.999Z,102623.31
2023-02-14T08:03:04.521Z,102613.03
2023-02-14T08:07:06.070Z,102619.16
2023-02-14T08:11:08.121Z,102621.09
2023-02-14T08:15:28.197Z,102614.19
2023-02-14T08:19:30.025Z,102608.81
2023-02-14T08:23:32.198Z,102612.41
2023-02-14T08:27:33.851Z,102613.59
2023-02-14T08:31:36.647Z,102610.75
2023-02-14T08:35:39.103Z,102619.56
2023-02-14T08:39:40.676Z,102617.63
2023-02-14T08:43:42.512Z,102610.31
2023-02-14T08:47:44.138Z,102625.97
2023-02-14T08:51:45.977Z,102616.84
2023-02-14T08:55:48.132Z,102620.00
2023-02-14T08:59:49.727Z,102615.91
2023-02-14T09:03:51.402Z,102609.91
2023-02-14T09:07:55.887Z,102622.56
2023-02-14T09:11:57.546Z,102609.59
2023-02-14T09:16:02.822Z,102609.72
2023-02-14T09:20:10.990Z,102608.97
2023-02-14T09:24:12.741Z,102602.56
2023-02-14T09:28:14.248Z,102611.34
2023-02-14T09:32:16.164Z,102606.22
2023-02-14T09:36:36.949Z,102601.97
2023-02-14T09:40:38.567Z,102607.50
2023-02-14T09:44:46.380Z,102604.63
2023-02-14T09:48:49.285Z,102606.09
2023-02-14T09:52:55.467Z,102595.94
2023-02-14T09:57:22.734Z,102599.28
2023-02-14T10:01:33.185Z,102590.72
2023-02-14T10:06:04.374Z,102579.97
2023-02-14T10:10:26.483Z,102582.50
2023-02-14T10:14:35.918Z,102580.22
2023-02-14T10:18:42.836Z,102586.13
2023-02-14T10:23:01.924Z,102584.16
2023-02-14T10:27:26.497Z,102577.69
2023-02-14T10:31:41.954Z,102570.44
2023-02-14T10:35:52.393Z,102561.34
2023-02-14T10:40:03.066Z,102562.22
2023-02-14T10:44:40.926Z,102560.97
2023-02-14T10:49:07.371Z,102548.94
2023-02-14T10:53:47.174Z,102549.56
2023-02-14T10:57:53.353Z,102546.16
2023-02-14T11:01:56.459Z,102541.66
2023-02-14T11:05:58.041Z,102538.22
2023-02-14T11:09:59.699Z,102538.13
2023-02-14T11:14:23.380Z,102539.41
2023-02-14T11:18:31.785Z,102530.63
2023-02-14T11:22:35.116Z,102526.22
2023-02-14T11:26:36.936Z,102524.06
2023-02-14T11:30:45.745Z,102519.00
2023-02-14T11:34:54.060Z,102515.22
2023-02-14T11:39:25.891Z,102516.78
2023-02-14T11:43:36.516Z,102505.19
2023-02-14T11:47:41.380Z,102501.22
2023-02-14T11:51:45.571Z,102495.50
2023-02-14T11:55:52.688Z,102488.75
2023-02-14T11:59:56.889Z,102485.59
2023-02-14T12:04:02.955Z,102476.69
2023-02-14T12:08:08.074Z,102473.13
2023-02-14T12:12:21.429Z,102465.00
2023-02-14T12:16:39.683Z,102461.53
2023-02-14T12:20:45.581Z,102456.44
2023-02-14T12:24:53.075Z,102449.47
2023-02-14T12:29:26.175Z,102443.97
2023-02-14T12:33:28.522Z,102443.09
2023-02-14T12:37:56.023Z,102432.53
2023-02-14T12:42:13.296Z,102438.63
2023-02-14T12:46:33.092Z,102436.44
2023-02-14T12:51:03.750Z,102433.41
2023-02-14T12:55:48.408Z,102424.84
2023-02-14T13:00:34.069Z,102420.53
2023-02-14T13:04:57.083Z,102421.66
2023-02-14T13:09:10.738Z,102414.22
2023-02-14T13:13:30.682Z,102407.97
2023-02-14T13:17:44.742Z,102396.09
2023-02-14T13:21:48.751Z,102399.13
2023-02-14T13:26:06.334Z,102396.44
2023-02-14T13:30:23.234Z,102394.69
2023-02-14T13:34:36.852Z,102386.56
2023-02-14T13:38:44.906Z,102380.91
2023-02-14T13:42:52.557Z,102377.72
2023-02-14T13:46:54.253Z,102373.00
2023-02-14T13:50:55.774Z,102368.03
2023-02-14T13:55:02.063Z,102367.81
2023-02-14T13:59:06.209Z,102366.28
2023-02-14T14:03:14.604Z,102361.66
2023-02-14T14:07:23.040Z,102359.75
2023-02-14T14:11:24.503Z,102361.25
2023-02-14T14:15:26.120Z,102361.38
2023-02-14T14:19:27.668Z,102352.94
2023-02-14T14:23:32.584Z,102349.28
2023-02-14T14:27:47.098Z,102347.66
2023-02-14T14:31:55.322Z,102348.44
2023-02-14T14:36:08.243Z,102339.38
2023-02-14T14:40:22.779Z,102341.59
2023-02-14T14:44:25.402Z,102339.53
2023-02-14T14:48:30.107Z,102339.94
2023-02-14T14:52:38.198Z,102329.41
2023-02-14T14:56:52.327Z,102324.97
2023-02-14T15:00:54.013Z,102317.97
2023-02-14T15:04:55.731Z,102313.69
2023-02-14T15:08:57.343Z,102317.50
2023-02-14T15:13:17.971Z,102314.56
2023-02-14T15:17:25.589Z,102321.56
2023-02-14T15:21:28.257Z,102319.47
2023-02-14T15:25:34.696Z,102323.00
2023-02-14T15:29:36.292Z,102318.56
2023-02-14T15:33:39.072Z,102316.13
2023-02-14T15:37:40.862Z,102316.97
2023-02-14T15:41:44.679Z,102314.06
2023-02-14T15:45:49.270Z,102318.56
2023-02-14T15:49:50.992Z,102313.41
2023-02-14T15:54:02.023Z,102316.28
2023-02-14T15:58:11.930Z,102321.03
2023-02-14T16:02:32.534Z,102321.94
2023-02-14T16:06:44.682Z,102312.22
2023-02-14T16:10:59.525Z,102320.16
2023-02-14T16:15:10.753Z,102319.34
2023-02-14T16:19:32.085Z,102315.50
2023-02-14T16:23:36.965Z,102312.44
2023-02-14T16:27:38.773Z,102312.00
2023-02-14T16:32:14.207Z,102304.13
2023-02-14T16:36:19.934Z,102306.09
2023-02-14T16:40:26.416Z,102303.31
2023-02-14T16:44:27.989Z,102304.66
2023-02-14T16:48:29.642Z,102307.19
2023-02-14T16:52:31.307Z,102311.09
2023-02-14T16:56:41.579Z,102321.84
2023-02-14T17:00:43.156Z,102327.84
2023-02-14T17:04:45.246Z,102331.03
2023-02-14T17:08:48.716Z,102333.78
2023-02-14T17:12:51.581Z,102331.56
2023-02-14T17:16:55.068Z,102332.44
2023-02-14T17:21:00.939Z,102340.06
2023-02-14T17:25:03.756Z,102332.78
2023-02-14T17:29:06.840Z,102339.34
2023-02-14T17:33:08.408Z,102344.41
2023-02-14T17:37:09.903Z,102350.53
2023-02-14T17:41:18.614Z,102346.97
2023-02-14T17:45:20.206Z,102343.25
2023-02-14T17:49:21.790Z,102348.34
2023-02-14T17:53:23.424Z,102354.63
2023-02-14T17:57:25.365Z,102346.00
2023-02-14T18:01:31.484Z,102338.72
2023-02-14T18:05:36.268Z,102345.09
2023-02-14T18:09:37.837Z,102335.59
2023-02-14T18:13:39.793Z,102333.97
2023-02-14T18:17:41.364Z,102330.41
2023-02-14T18:21:45.024Z,102335.47
2023-02-14T18:25:55.806Z,102318.19
2023-02-14T18:29:57.363Z,102315.06
2023-02-14T18:34:02.805Z,102314.16
2023-02-14T18:38:04.619Z,102312.94
2023-02-14T18:42:06.263Z,102307.75
2023-02-14T18:46:10.838Z,102308.78
2023-02-14T18:50:12.404Z,102307.25
2023-02-14T18:54:14.422Z,102298.13
2023-02-14T18:58:15.901Z,102300.03
2023-02-14T19:02:17.597Z,102297.75
2023-02-14T19:06:19.558Z,102288.41
2023-02-14T19:10:21.111Z,102292.66
2023-02-14T19:14:22.612Z,102290.97
2023-02-14T19:18:25.736Z,102283.16
2023-02-14T19:22:27.311Z,102291.34
2023-02-14T19:26:37.113Z,102281.06
2023-02-14T19:30:38.754Z,102278.69
2023-02-14T19:34:40.822Z,102278.81
2023-02-14T19:38:45.238Z,102279.03
2023-02-14T19:42:47.504Z,102272.59
2023-02-14T19:46:49.764Z,102269.84
2023-02-14T19:50:52.500Z,102276.50
2023-02-14T19:54:55.873Z,102258.75
2023-02-14T19:58:58.410Z,102268.88
2023-02-14T20:03:01.498Z,102251.91
2023-02-14T20:07:03.136Z,102254.25
2023-02-14T20:11:04.672Z,102255.59
2023-02-14T20:15:08.214Z,102241.16
2023-02-14T20:19:16.573Z,102236.16
2023-02-14T20:23:18.109Z,102251.47
2023-02-14T20:27:19.955Z,102235.81
2023-02-14T20:31:21.937Z,102235.28
2023-02-14T20:35:23.578Z,102234.31
2023-02-14T20:39:29.747Z,102240.31
2023-02-14T20:43:31.306Z,102229.47
2023-02-14T20:47:32.834Z,102232.78
2023-02-14T20:51:35.012Z,102226.75
2023-02-14T20:55:41.753Z,102225.38
2023-02-14T20:59:45.255Z,102223.81
2023-02-14T21:03:50.412Z,102215.00
2023-02-14T21:07:52.046Z,102216.00
2023-02-14T21:11:54.107Z,102213.47
2023-02-14T21:16:00.753Z,102206.63
2023-02-14T21:20:02.320Z,102203.34
2023-02-14T21:24:07.394Z,102212.13
2023-02-14T21:28:09.004Z,102205.41
2023-02-14T21:32:10.880Z,102205.41
2023-02-14T21:36:15.348Z,102202.00
2023-02-14T21:40:17.149Z,102206.28
2023-02-14T21:44:41.372Z,102191.84
2023-02-14T21:49:02.145Z,102185.88
2023-02-14T21:53:07.340Z,102186.78
2023-02-14T21:57:09.187Z,102178.00
2023-02-14T22:01:19.568Z,102167.03
2023-02-14T22:05:21.224Z,102173.00
2023-02-14T22:09:22.954Z,102168.44
2023-02-14T22:13:25.058Z,102168.53
2023-02-14T22:17:27.949Z,102175.41
2023-02-14T22:21:33.285Z,102173.75
2023-02-14T22:25:35.027Z,102163.34
2023-02-14T22:29:36.950Z,102175.25
2023-02-14T22:33:39.053Z,102180.34
2023-02-14T22:37:40.655Z,102168.44
2023-02-14T22:41:42.800Z,102167.13
2023-02-14T22:45:44.445Z,102163.28
2023-02-14T22:49:46.172Z,102157.06
2023-02-14T22:53:49.548Z,102149.91
2023-02-14T22:57:51.225Z,102157.66
2023-02-14T23:01:53.224Z,102159.44
2023-02-14T23:05:58.240Z,102158.56
2023-02-14T23:09:59.822Z,102155.88
2023-02-14T23:14:20.009Z,102150.06
2023-02-14T23:18:40.019Z,102150.53
2023-02-14T23:22:41.593Z,102153.81
2023-02-14T23:26:43.153Z,102156.63
2023-02-14T23:30:44.794Z,102156.03
2023-02-14T23:34:46.380Z,102164.50
2023-02-14T23:38:47.937Z,102163.00
2023-02-14T23:42:49.514Z,102167.91
2023-02-14T23:46:53.472Z,102166.31
2023-02-14T23:50:59.855Z,102164.78
2023-02-14T23:55:01.434Z,102163.78
2023-02-14T23:59:06.871Z,102166.56
